sensor_id;sensor_type;location;lat;lon;timestamp;P1;durP1;ratioP1;P2;durP2;ratioP2
3121;SDS011;1571;52.524;14.104;2023-03-23T00:00:57;1.30;;;1.20;;
3121;SDS011;1571;52.524;14.104;2023-03-23T00:03:24;1.10;;;1.10;;
3121;SDS011;1571;52.524;14.104;2023-03-23T00:05:55;1.43;;;1.20;;
3121;SDS011;1571;52.524;14.104;2023-03-23T00:08:28;2.03;;;1.20;;
3121;SDS011;1571;52.524;14.104;2023-03-23T00:10:56;1.60;;;1.07;;
3121;SDS011;1571;52.524;14.104;2023-03-23T00:13:24;2.70;;;1.20;;
3121;SDS011;1571;52.524;14.104;2023-03-23T00:15:52;3.63;;;0.93;;
3121;SDS011;1571;52.524;14.104;2023-03-23T00:18:20;2.47;;;1.10;;
3121;SDS011;1571;52.524;14.104;2023-03-23T00:20:48;1.47;;;1.37;;
3121;SDS011;1571;52.524;14.104;2023-03-23T00:23:18;2.03;;;1.40;;
3121;SDS011;1571;52.524;14.104;2023-03-23T00:25:46;1.77;;;0.97;;
3121;SDS011;1571;52.524;14.104;2023-03-23T00:28:14;2.20;;;2.03;;
3121;SDS011;1571;52.524;14.104;2023-03-23T00:30:44;1.93;;;1.13;;
3121;SDS011;1571;52.524;14.104;2023-03-23T00:33:11;1.87;;;1.00;;
3121;SDS011;1571;52.524;14.104;2023-03-23T00:35:40;1.40;;;1.00;;
3121;SDS011;1571;52.524;14.104;2023-03-23T00:38:07;1.20;;;1.10;;
3121;SDS011;1571;52.524;14.104;2023-03-23T00:40:36;3.37;;;1.40;;
3121;SDS011;1571;52.524;14.104;2023-03-23T00:43:03;1.20;;;1.00;;
3121;SDS011;1571;52.524;14.104;2023-03-23T00:45:30;3.17;;;1.53;;
3121;SDS011;1571;52.524;14.104;2023-03-23T00:48:00;1.30;;;1.20;;
3121;SDS011;1571;52.524;14.104;2023-03-23T00:50:30;1.23;;;1.13;;
3121;SDS011;1571;52.524;14.104;2023-03-23T00:52:57;3.33;;;1.10;;
3121;SDS011;1571;52.524;14.104;2023-03-23T00:55:24;1.03;;;0.90;;
3121;SDS011;1571;52.524;14.104;2023-03-23T00:57:53;1.00;;;1.00;;
3121;SDS011;1571;52.524;14.104;2023-03-23T01:00:21;2.07;;;1.20;;
3121;SDS011;1571;52.524;14.104;2023-03-23T01:02:48;1.07;;;0.97;;
3121;SDS011;1571;52.524;14.104;2023-03-23T01:05:17;2.13;;;1.20;;
3121;SDS011;1571;52.524;14.104;2023-03-23T01:07:44;2.33;;;1.23;;
3121;SDS011;1571;52.524;14.104;2023-03-23T01:10:13;1.30;;;1.20;;
3121;SDS011;1571;52.524;14.104;2023-03-23T01:12:42;1.43;;;1.17;;
3121;SDS011;1571;52.524;14.104;2023-03-23T01:15:16;3.13;;;1.13;;
3121;SDS011;1571;52.524;14.104;2023-03-23T01:17:44;1.93;;;1.10;;
3121;SDS011;1571;52.524;14.104;2023-03-23T01:20:12;1.40;;;1.20;;
3121;SDS011;1571;52.524;14.104;2023-03-23T01:22:40;0.87;;;0.87;;
3121;SDS011;1571;52.524;14.104;2023-03-23T01:25:08;1.30;;;1.20;;
3121;SDS011;1571;52.524;14.104;2023-03-23T01:27:37;1.73;;;1.30;;
3121;SDS011;1571;52.524;14.104;2023-03-23T01:30:05;1.10;;;1.00;;
3121;SDS011;1571;52.524;14.104;2023-03-23T01:32:35;4.10;;;1.40;;
3121;SDS011;1571;52.524;14.104;2023-03-23T01:35:03;1.23;;;1.07;;
3121;SDS011;1571;52.524;14.104;2023-03-23T01:37:30;2.40;;;1.53;;
3121;SDS011;1571;52.524;14.104;2023-03-23T01:39:58;1.97;;;1.47;;
3121;SDS011;1571;52.524;14.104;2023-03-23T01:42:25;2.73;;;0.93;;
3121;SDS011;1571;52.524;14.104;2023-03-23T01:45:22;1.63;;;1.40;;
3121;SDS011;1571;52.524;14.104;2023-03-23T01:47:57;1.60;;;1.30;;
3121;SDS011;1571;52.524;14.104;2023-03-23T01:50:30;0.90;;;0.90;;
3121;SDS011;1571;52.524;14.104;2023-03-23T01:53:02;1.20;;;1.00;;
3121;SDS011;1571;52.524;14.104;2023-03-23T01:55:35;1.77;;;1.67;;
3121;SDS011;1571;52.524;14.104;2023-03-23T01:58:05;1.13;;;1.03;;
3121;SDS011;1571;52.524;14.104;2023-03-23T02:00:33;1.97;;;1.00;;
3121;SDS011;1571;52.524;14.104;2023-03-23T02:03:02;1.20;;;1.10;;
3121;SDS011;1571;52.524;14.104;2023-03-23T02:05:35;1.20;;;1.20;;
3121;SDS011;1571;52.524;14.104;2023-03-23T02:08:11;1.07;;;0.97;;
3121;SDS011;1571;52.524;14.104;2023-03-23T02:10:40;1.30;;;1.00;;
3121;SDS011;1571;52.524;14.104;2023-03-23T02:13:09;0.90;;;0.90;;
3121;SDS011;1571;52.524;14.104;2023-03-23T02:15:40;2.10;;;0.93;;
3121;SDS011;1571;52.524;14.104;2023-03-23T02:27:26;1.43;;;1.20;;
3121;SDS011;1571;52.524;14.104;2023-03-23T02:30:40;2.67;;;1.67;;
3121;SDS011;1571;52.524;14.104;2023-03-23T02:33:28;5.53;;;2.00;;
3121;SDS011;1571;52.524;14.104;2023-03-23T02:36:03;1.30;;;1.20;;
3121;SDS011;1571;52.524;14.104;2023-03-23T02:38:38;1.37;;;1.17;;
3121;SDS011;1571;52.524;14.104;2023-03-23T02:41:09;2.10;;;1.60;;
3121;SDS011;1571;52.524;14.104;2023-03-23T02:43:39;8.37;;;4.73;;
3121;SDS011;1571;52.524;14.104;2023-03-23T02:46:09;13.93;;;6.37;;
3121;SDS011;1571;52.524;14.104;2023-03-23T02:48:38;8.27;;;4.70;;
3121;SDS011;1571;52.524;14.104;2023-03-23T02:51:08;11.00;;;5.10;;
3121;SDS011;1571;52.524;14.104;2023-03-23T02:53:39;5.60;;;3.37;;
3121;SDS011;1571;52.524;14.104;2023-03-23T02:56:09;3.47;;;2.40;;
3121;SDS011;1571;52.524;14.104;2023-03-23T02:58:39;6.87;;;4.07;;
3121;SDS011;1571;52.524;14.104;2023-03-23T03:01:13;7.03;;;4.23;;
3121;SDS011;1571;52.524;14.104;2023-03-23T03:04:05;1.83;;;1.53;;
3121;SDS011;1571;52.524;14.104;2023-03-23T03:06:40;1.87;;;1.30;;
3121;SDS011;1571;52.524;14.104;2023-03-23T03:09:19;1.30;;;1.20;;
3121;SDS011;1571;52.524;14.104;2023-03-23T03:11:56;3.97;;;2.07;;
3121;SDS011;1571;52.524;14.104;2023-03-23T03:14:31;3.47;;;2.20;;
3121;SDS011;1571;52.524;14.104;2023-03-23T03:17:04;2.43;;;1.93;;
3121;SDS011;1571;52.524;14.104;2023-03-23T03:19:38;4.37;;;1.77;;
3121;SDS011;1571;52.524;14.104;2023-03-23T03:22:09;3.90;;;1.90;;
3121;SDS011;1571;52.524;14.104;2023-03-23T03:24:39;7.73;;;3.03;;
3121;SDS011;1571;52.524;14.104;2023-03-23T03:27:12;4.33;;;2.60;;
3121;SDS011;1571;52.524;14.104;2023-03-23T03:29:49;6.57;;;3.37;;
3121;SDS011;1571;52.524;14.104;2023-03-23T03:32:21;5.40;;;3.40;;
3121;SDS011;1571;52.524;14.104;2023-03-23T03:34:54;5.67;;;3.20;;
3121;SDS011;1571;52.524;14.104;2023-03-23T03:37:22;2.50;;;1.83;;
3121;SDS011;1571;52.524;14.104;2023-03-23T03:39:50;5.53;;;2.83;;
3121;SDS011;1571;52.524;14.104;2023-03-23T03:42:17;7.90;;;3.10;;
3121;SDS011;1571;52.524;14.104;2023-03-23T03:44:44;2.30;;;1.87;;
3121;SDS011;1571;52.524;14.104;2023-03-23T03:47:11;1.67;;;1.33;;
3121;SDS011;1571;52.524;14.104;2023-03-23T03:49:38;1.30;;;1.20;;
3121;SDS011;1571;52.524;14.104;2023-03-23T03:52:07;1.57;;;1.47;;
3121;SDS011;1571;52.524;14.104;2023-03-23T03:54:39;3.40;;;2.40;;
3121;SDS011;1571;52.524;14.104;2023-03-23T03:57:07;5.03;;;3.20;;
3121;SDS011;1571;52.524;14.104;2023-03-23T03:59:52;4.50;;;4.00;;
3121;SDS011;1571;52.524;14.104;2023-03-23T04:02:22;4.63;;;3.50;;
3121;SDS011;1571;52.524;14.104;2023-03-23T04:04:51;3.70;;;2.37;;
3121;SDS011;1571;52.524;14.104;2023-03-23T04:07:20;8.70;;;4.23;;
3121;SDS011;1571;52.524;14.104;2023-03-23T04:09:52;7.23;;;3.70;;
3121;SDS011;1571;52.524;14.104;2023-03-23T04:12:20;6.13;;;3.97;;
3121;SDS011;1571;52.524;14.104;2023-03-23T04:14:56;6.20;;;2.53;;
3121;SDS011;1571;52.524;14.104;2023-03-23T04:17:32;8.40;;;3.30;;
3121;SDS011;1571;52.524;14.104;2023-03-23T04:19:59;2.97;;;1.77;;
3121;SDS011;1571;52.524;14.104;2023-03-23T04:22:30;5.40;;;3.07;;
3121;SDS011;1571;52.524;14.104;2023-03-23T04:24:59;3.20;;;1.33;;
3121;SDS011;1571;52.524;14.104;2023-03-23T04:27:32;5.93;;;3.50;;
3121;SDS011;1571;52.524;14.104;2023-03-23T04:30:02;6.37;;;3.90;;
3121;SDS011;1571;52.524;14.104;2023-03-23T04:32:41;6.80;;;4.33;;
3121;SDS011;1571;52.524;14.104;2023-03-23T04:35:11;14.90;;;6.30;;
3121;SDS011;1571;52.524;14.104;2023-03-23T04:37:47;6.60;;;3.10;;
3121;SDS011;1571;52.524;14.104;2023-03-23T04:40:17;10.17;;;4.73;;
3121;SDS011;1571;52.524;14.104;2023-03-23T04:42:56;4.57;;;3.83;;
3121;SDS011;1571;52.524;14.104;2023-03-23T04:45:47;1.97;;;1.77;;
3121;SDS011;1571;52.524;14.104;2023-03-23T04:48:22;1.60;;;1.40;;
3121;SDS011;1571;52.524;14.104;2023-03-23T04:51:00;9.33;;;5.00;;
3121;SDS011;1571;52.524;14.104;2023-03-23T04:53:30;5.63;;;3.13;;
3121;SDS011;1571;52.524;14.104;2023-03-23T04:55:59;2.07;;;1.50;;
3121;SDS011;1571;52.524;14.104;2023-03-23T04:58:29;3.60;;;2.67;;
3121;SDS011;1571;52.524;14.104;2023-03-23T05:01:26;2.87;;;2.00;;
3121;SDS011;1571;52.524;14.104;2023-03-23T05:04:06;2.70;;;2.27;;
3121;SDS011;1571;52.524;14.104;2023-03-23T05:06:34;3.30;;;2.43;;
3121;SDS011;1571;52.524;14.104;2023-03-23T05:09:11;4.20;;;2.50;;
3121;SDS011;1571;52.524;14.104;2023-03-23T05:11:39;3.97;;;3.00;;
3121;SDS011;1571;52.524;14.104;2023-03-23T05:14:06;3.00;;;2.30;;
3121;SDS011;1571;52.524;14.104;2023-03-23T05:16:34;5.90;;;2.70;;
3121;SDS011;1571;52.524;14.104;2023-03-23T05:19:03;4.10;;;2.10;;
3121;SDS011;1571;52.524;14.104;2023-03-23T05:21:32;2.43;;;2.10;;
3121;SDS011;1571;52.524;14.104;2023-03-23T05:24:00;2.83;;;2.63;;
3121;SDS011;1571;52.524;14.104;2023-03-23T05:26:31;3.07;;;2.10;;
3121;SDS011;1571;52.524;14.104;2023-03-23T05:29:05;3.20;;;2.60;;
3121;SDS011;1571;52.524;14.104;2023-03-23T05:31:41;3.03;;;2.40;;
3121;SDS011;1571;52.524;14.104;2023-03-23T05:34:08;5.17;;;2.47;;
3121;SDS011;1571;52.524;14.104;2023-03-23T05:36:47;7.03;;;3.50;;
3121;SDS011;1571;52.524;14.104;2023-03-23T05:39:26;5.97;;;3.63;;
3121;SDS011;1571;52.524;14.104;2023-03-23T05:42:18;1.87;;;1.67;;
3121;SDS011;1571;52.524;14.104;2023-03-23T05:44:55;4.30;;;2.70;;
3121;SDS011;1571;52.524;14.104;2023-03-23T05:47:22;1.77;;;1.33;;
3121;SDS011;1571;52.524;14.104;2023-03-23T05:49:55;1.33;;;1.23;;
3121;SDS011;1571;52.524;14.104;2023-03-23T05:52:24;1.30;;;1.20;;
3121;SDS011;1571;52.524;14.104;2023-03-23T05:54:52;1.70;;;1.33;;
3121;SDS011;1571;52.524;14.104;2023-03-23T05:57:23;1.97;;;1.23;;
3121;SDS011;1571;52.524;14.104;2023-03-23T06:00:04;1.37;;;1.20;;
3121;SDS011;1571;52.524;14.104;2023-03-23T06:02:45;2.67;;;1.10;;
3121;SDS011;1571;52.524;14.104;2023-03-23T06:05:20;1.87;;;1.43;;
3121;SDS011;1571;52.524;14.104;2023-03-23T06:07:53;1.83;;;1.10;;
3121;SDS011;1571;52.524;14.104;2023-03-23T06:10:20;1.03;;;0.97;;
3121;SDS011;1571;52.524;14.104;2023-03-23T06:12:55;1.80;;;1.70;;
3121;SDS011;1571;52.524;14.104;2023-03-23T06:15:41;2.30;;;2.10;;
3121;SDS011;1571;52.524;14.104;2023-03-23T06:18:18;1.47;;;1.27;;
3121;SDS011;1571;52.524;14.104;2023-03-23T06:21:11;1.93;;;1.30;;
3121;SDS011;1571;52.524;14.104;2023-03-23T06:23:53;2.53;;;1.70;;
3121;SDS011;1571;52.524;14.104;2023-03-23T06:26:25;2.03;;;1.57;;
3121;SDS011;1571;52.524;14.104;2023-03-23T06:28:59;7.00;;;4.70;;
3121;SDS011;1571;52.524;14.104;2023-03-23T06:31:29;2.07;;;1.90;;
3121;SDS011;1571;52.524;14.104;2023-03-23T06:33:57;3.50;;;1.27;;
3121;SDS011;1571;52.524;14.104;2023-03-23T06:36:24;1.63;;;1.53;;
3121;SDS011;1571;52.524;14.104;2023-03-23T06:39:12;2.67;;;1.77;;
3121;SDS011;1571;52.524;14.104;2023-03-23T06:41:52;3.00;;;2.30;;
3121;SDS011;1571;52.524;14.104;2023-03-23T06:44:20;3.10;;;2.03;;
3121;SDS011;1571;52.524;14.104;2023-03-23T06:46:48;5.40;;;1.13;;
3121;SDS011;1571;52.524;14.104;2023-03-23T06:49:19;2.40;;;1.67;;
3121;SDS011;1571;52.524;14.104;2023-03-23T06:51:59;1.70;;;1.60;;
3121;SDS011;1571;52.524;14.104;2023-03-23T06:54:28;2.33;;;2.13;;
3121;SDS011;1571;52.524;14.104;2023-03-23T06:56:58;2.17;;;1.97;;
3121;SDS011;1571;52.524;14.104;2023-03-23T06:59:27;3.00;;;1.70;;
3121;SDS011;1571;52.524;14.104;2023-03-23T07:01:54;2.87;;;2.00;;
3121;SDS011;1571;52.524;14.104;2023-03-23T07:04:22;2.73;;;1.87;;
3121;SDS011;1571;52.524;14.104;2023-03-23T07:06:59;2.20;;;2.00;;
3121;SDS011;1571;52.524;14.104;2023-03-23T07:09:28;6.13;;;2.60;;
3121;SDS011;1571;52.524;14.104;2023-03-23T07:11:56;3.13;;;2.83;;
3121;SDS011;1571;52.524;14.104;2023-03-23T07:14:38;7.87;;;2.33;;
3121;SDS011;1571;52.524;14.104;2023-03-23T07:17:05;3.57;;;3.10;;
3121;SDS011;1571;52.524;14.104;2023-03-23T07:19:37;4.50;;;2.73;;
3121;SDS011;1571;52.524;14.104;2023-03-23T07:22:05;3.63;;;2.90;;
3121;SDS011;1571;52.524;14.104;2023-03-23T07:24:33;2.67;;;2.47;;
3121;SDS011;1571;52.524;14.104;2023-03-23T07:27:11;2.20;;;2.07;;
3121;SDS011;1571;52.524;14.104;2023-03-23T07:29:41;2.60;;;2.40;;
3121;SDS011;1571;52.524;14.104;2023-03-23T07:32:15;4.07;;;2.40;;
3121;SDS011;1571;52.524;14.104;2023-03-23T07:34:42;6.23;;;2.80;;
3121;SDS011;1571;52.524;14.104;2023-03-23T07:37:17;2.10;;;1.83;;
3121;SDS011;1571;52.524;14.104;2023-03-23T07:39:47;4.07;;;2.40;;
3121;SDS011;1571;52.524;14.104;2023-03-23T07:42:15;2.07;;;1.97;;
3121;SDS011;1571;52.524;14.104;2023-03-23T07:44:50;1.93;;;1.83;;
3121;SDS011;1571;52.524;14.104;2023-03-23T07:47:17;3.30;;;2.30;;
3121;SDS011;1571;52.524;14.104;2023-03-23T07:49:47;1.90;;;1.80;;
3121;SDS011;1571;52.524;14.104;2023-03-23T07:52:34;6.30;;;2.20;;
3121;SDS011;1571;52.524;14.104;2023-03-23T07:55:03;2.53;;;1.90;;
3121;SDS011;1571;52.524;14.104;2023-03-23T07:57:46;2.07;;;1.90;;
3121;SDS011;1571;52.524;14.104;2023-03-23T08:00:17;1.60;;;1.50;;
3121;SDS011;1571;52.524;14.104;2023-03-23T08:02:47;1.93;;;1.57;;
3121;SDS011;1571;52.524;14.104;2023-03-23T08:05:33;3.37;;;2.07;;
3121;SDS011;1571;52.524;14.104;2023-03-23T08:08:20;3.40;;;2.67;;
3121;SDS011;1571;52.524;14.104;2023-03-23T08:11:25;2.27;;;2.10;;
3121;SDS011;1571;52.524;14.104;2023-03-23T08:14:11;5.50;;;1.63;;
3121;SDS011;1571;52.524;14.104;2023-03-23T08:16:59;4.33;;;2.30;;
3121;SDS011;1571;52.524;14.104;2023-03-23T08:19:41;4.07;;;2.30;;
3121;SDS011;1571;52.524;14.104;2023-03-23T08:22:27;3.57;;;2.20;;
3121;SDS011;1571;52.524;14.104;2023-03-23T08:25:30;2.00;;;1.87;;
3121;SDS011;1571;52.524;14.104;2023-03-23T08:28:18;2.60;;;2.20;;
3121;SDS011;1571;52.524;14.104;2023-03-23T08:31:09;2.17;;;1.63;;
3121;SDS011;1571;52.524;14.104;2023-03-23T08:33:52;1.57;;;1.47;;
3121;SDS011;1571;52.524;14.104;2023-03-23T08:36:36;2.00;;;1.73;;
3121;SDS011;1571;52.524;14.104;2023-03-23T08:39:18;2.80;;;1.50;;
3121;SDS011;1571;52.524;14.104;2023-03-23T08:42:05;1.87;;;1.40;;
3121;SDS011;1571;52.524;14.104;2023-03-23T08:44:52;2.43;;;1.80;;
3121;SDS011;1571;52.524;14.104;2023-03-23T08:47:38;2.03;;;1.57;;
3121;SDS011;1571;52.524;14.104;2023-03-23T08:50:24;1.53;;;1.43;;
3121;SDS011;1571;52.524;14.104;2023-03-23T08:53:08;2.03;;;1.83;;
3121;SDS011;1571;52.524;14.104;2023-03-23T08:55:47;1.77;;;1.67;;
3121;SDS011;1571;52.524;14.104;2023-03-23T08:58:34;3.23;;;1.60;;
3121;SDS011;1571;52.524;14.104;2023-03-23T09:01:31;2.93;;;1.93;;
3121;SDS011;1571;52.524;14.104;2023-03-23T09:04:14;2.20;;;2.00;;
3121;SDS011;1571;52.524;14.104;2023-03-23T09:06:52;1.90;;;1.50;;
3121;SDS011;1571;52.524;14.104;2023-03-23T09:09:19;2.07;;;1.90;;
3121;SDS011;1571;52.524;14.104;2023-03-23T09:11:46;4.53;;;2.00;;
3121;SDS011;1571;52.524;14.104;2023-03-23T09:14:13;1.80;;;1.70;;
3121;SDS011;1571;52.524;14.104;2023-03-23T09:16:40;2.90;;;1.53;;
3121;SDS011;1571;52.524;14.104;2023-03-23T09:19:07;2.17;;;1.53;;
3121;SDS011;1571;52.524;14.104;2023-03-23T09:21:35;1.77;;;1.67;;
3121;SDS011;1571;52.524;14.104;2023-03-23T09:24:04;2.17;;;1.80;;
3121;SDS011;1571;52.524;14.104;2023-03-23T09:26:32;1.67;;;1.57;;
3121;SDS011;1571;52.524;14.104;2023-03-23T09:28:59;2.00;;;1.73;;
3121;SDS011;1571;52.524;14.104;2023-03-23T09:31:26;3.53;;;2.33;;
3121;SDS011;1571;52.524;14.104;2023-03-23T09:33:53;2.00;;;1.77;;
3121;SDS011;1571;52.524;14.104;2023-03-23T09:36:22;1.50;;;1.40;;
3121;SDS011;1571;52.524;14.104;2023-03-23T09:38:51;3.20;;;1.80;;
3121;SDS011;1571;52.524;14.104;2023-03-23T09:41:25;1.40;;;1.30;;
3121;SDS011;1571;52.524;14.104;2023-03-23T09:44:12;2.33;;;1.23;;
3121;SDS011;1571;52.524;14.104;2023-03-23T09:46:50;6.40;;;1.20;;
3121;SDS011;1571;52.524;14.104;2023-03-23T09:49:24;2.17;;;1.43;;
3121;SDS011;1571;52.524;14.104;2023-03-23T09:51:54;4.37;;;1.33;;
3121;SDS011;1571;52.524;14.104;2023-03-23T09:54:26;1.70;;;1.27;;
3121;SDS011;1571;52.524;14.104;2023-03-23T09:56:57;1.50;;;1.40;;
3121;SDS011;1571;52.524;14.104;2023-03-23T09:59:27;1.93;;;1.37;;
3121;SDS011;1571;52.524;14.104;2023-03-23T10:01:59;1.27;;;1.17;;
3121;SDS011;1571;52.524;14.104;2023-03-23T10:04:39;3.80;;;1.00;;
3121;SDS011;1571;52.524;14.104;2023-03-23T10:07:11;1.37;;;0.93;;
3121;SDS011;1571;52.524;14.104;2023-03-23T10:09:40;5.03;;;1.10;;
3121;SDS011;1571;52.524;14.104;2023-03-23T10:12:13;0.90;;;0.90;;
3121;SDS011;1571;52.524;14.104;2023-03-23T10:14:50;1.27;;;1.03;;
3121;SDS011;1571;52.524;14.104;2023-03-23T10:17:27;2.50;;;0.80;;
3121;SDS011;1571;52.524;14.104;2023-03-23T10:19:59;1.83;;;0.83;;
3121;SDS011;1571;52.524;14.104;2023-03-23T10:22:38;1.70;;;1.00;;
3121;SDS011;1571;52.524;14.104;2023-03-23T10:25:14;1.90;;;1.53;;
3121;SDS011;1571;52.524;14.104;2023-03-23T10:27:44;0.90;;;0.90;;
3121;SDS011;1571;52.524;14.104;2023-03-23T10:30:17;1.90;;;1.13;;
3121;SDS011;1571;52.524;14.104;2023-03-23T10:32:50;3.00;;;1.07;;
3121;SDS011;1571;52.524;14.104;2023-03-23T10:35:23;0.77;;;0.77;;
3121;SDS011;1571;52.524;14.104;2023-03-23T10:37:56;1.37;;;1.13;;
3121;SDS011;1571;52.524;14.104;2023-03-23T10:40:27;0.90;;;0.63;;
3121;SDS011;1571;52.524;14.104;2023-03-23T10:42:59;1.37;;;0.80;;
3121;SDS011;1571;52.524;14.104;2023-03-23T10:45:27;1.53;;;0.90;;
3121;SDS011;1571;52.524;14.104;2023-03-23T10:48:00;1.60;;;0.90;;
3121;SDS011;1571;52.524;14.104;2023-03-23T10:50:37;1.13;;;0.70;;
3121;SDS011;1571;52.524;14.104;2023-03-23T10:53:10;1.90;;;1.80;;
3121;SDS011;1571;52.524;14.104;2023-03-23T10:55:41;1.00;;;0.80;;
3121;SDS011;1571;52.524;14.104;2023-03-23T10:58:12;1.33;;;0.70;;
3121;SDS011;1571;52.524;14.104;2023-03-23T11:00:49;1.20;;;0.70;;
3121;SDS011;1571;52.524;14.104;2023-03-23T11:03:21;0.80;;;0.80;;
3121;SDS011;1571;52.524;14.104;2023-03-23T11:05:59;2.80;;;0.90;;
3121;SDS011;1571;52.524;14.104;2023-03-23T11:08:30;1.70;;;0.70;;
3121;SDS011;1571;52.524;14.104;2023-03-23T11:11:07;1.67;;;1.57;;
3121;SDS011;1571;52.524;14.104;2023-03-23T11:13:39;1.17;;;0.70;;
3121;SDS011;1571;52.524;14.104;2023-03-23T11:16:10;1.67;;;0.80;;
3121;SDS011;1571;52.524;14.104;2023-03-23T11:18:48;0.70;;;0.70;;
3121;SDS011;1571;52.524;14.104;2023-03-23T11:21:15;0.80;;;0.80;;
3121;SDS011;1571;52.524;14.104;2023-03-23T11:23:46;1.10;;;0.70;;
3121;SDS011;1571;52.524;14.104;2023-03-23T11:26:16;1.87;;;1.20;;
3121;SDS011;1571;52.524;14.104;2023-03-23T11:28:51;1.03;;;0.80;;
3121;SDS011;1571;52.524;14.104;2023-03-23T11:31:21;1.10;;;0.73;;
3121;SDS011;1571;52.524;14.104;2023-03-23T11:33:51;1.47;;;1.10;;
3121;SDS011;1571;52.524;14.104;2023-03-23T11:36:20;6.20;;;2.20;;
3121;SDS011;1571;52.524;14.104;2023-03-23T11:38:52;1.47;;;0.97;;
3121;SDS011;1571;52.524;14.104;2023-03-23T11:41:21;1.53;;;0.90;;
3121;SDS011;1571;52.524;14.104;2023-03-23T11:43:51;1.73;;;1.30;;
3121;SDS011;1571;52.524;14.104;2023-03-23T11:46:26;0.80;;;0.80;;
3121;SDS011;1571;52.524;14.104;2023-03-23T11:49:00;1.53;;;0.80;;
3121;SDS011;1571;52.524;14.104;2023-03-23T11:51:33;0.80;;;0.80;;
3121;SDS011;1571;52.524;14.104;2023-03-23T11:54:09;1.50;;;0.80;;
3121;SDS011;1571;52.524;14.104;2023-03-23T11:56:42;2.93;;;0.70;;
3121;SDS011;1571;52.524;14.104;2023-03-23T11:59:14;0.80;;;0.80;;
3121;SDS011;1571;52.524;14.104;2023-03-23T12:01:46;1.20;;;1.00;;
3121;SDS011;1571;52.524;14.104;2023-03-23T12:07:23;1.03;;;0.93;;
3121;SDS011;1571;52.524;14.104;2023-03-23T12:09:59;0.90;;;0.80;;
3121;SDS011;1571;52.524;14.104;2023-03-23T12:12:32;3.57;;;0.83;;
3121;SDS011;1571;52.524;14.104;2023-03-23T12:15:10;0.70;;;0.70;;
3121;SDS011;1571;52.524;14.104;2023-03-23T12:17:48;1.10;;;0.90;;
3121;SDS011;1571;52.524;14.104;2023-03-23T12:20:25;0.87;;;0.87;;
3121;SDS011;1571;52.524;14.104;2023-03-23T12:23:06;1.30;;;0.90;;
3121;SDS011;1571;52.524;14.104;2023-03-23T12:28:55;1.47;;;0.90;;
3121;SDS011;1571;52.524;14.104;2023-03-23T12:31:33;1.73;;;1.23;;
3121;SDS011;1571;52.524;14.104;2023-03-23T12:34:07;4.00;;;0.97;;
3121;SDS011;1571;52.524;14.104;2023-03-23T12:36:47;1.00;;;0.70;;
3121;SDS011;1571;52.524;14.104;2023-03-23T12:39:35;1.27;;;0.77;;
3121;SDS011;1571;52.524;14.104;2023-03-23T12:42:14;2.20;;;0.90;;
3121;SDS011;1571;52.524;14.104;2023-03-23T12:44:48;0.93;;;0.80;;
3121;SDS011;1571;52.524;14.104;2023-03-23T12:47:37;0.60;;;0.60;;
3121;SDS011;1571;52.524;14.104;2023-03-23T12:50:11;1.60;;;1.00;;
3121;SDS011;1571;52.524;14.104;2023-03-23T12:52:47;3.77;;;1.47;;
3121;SDS011;1571;52.524;14.104;2023-03-23T12:55:20;1.37;;;1.10;;
3121;SDS011;1571;52.524;14.104;2023-03-23T12:57:52;1.07;;;0.97;;
3121;SDS011;1571;52.524;14.104;2023-03-23T13:00:26;2.60;;;1.00;;
3121;SDS011;1571;52.524;14.104;2023-03-23T13:02:59;1.03;;;1.03;;
3121;SDS011;1571;52.524;14.104;2023-03-23T13:05:34;3.33;;;1.03;;
3121;SDS011;1571;52.524;14.104;2023-03-23T13:08:09;1.00;;;0.90;;
3121;SDS011;1571;52.524;14.104;2023-03-23T13:10:41;1.33;;;0.80;;
3121;SDS011;1571;52.524;14.104;2023-03-23T13:13:15;0.80;;;0.77;;
3121;SDS011;1571;52.524;14.104;2023-03-23T13:15:48;1.20;;;1.00;;
3121;SDS011;1571;52.524;14.104;2023-03-23T13:18:27;2.73;;;0.87;;
3121;SDS011;1571;52.524;14.104;2023-03-23T13:21:05;2.87;;;1.20;;
3121;SDS011;1571;52.524;14.104;2023-03-23T13:23:38;1.13;;;0.90;;
3121;SDS011;1571;52.524;14.104;2023-03-23T13:26:10;1.37;;;0.90;;
3121;SDS011;1571;52.524;14.104;2023-03-23T13:28:50;0.70;;;0.70;;
3121;SDS011;1571;52.524;14.104;2023-03-23T13:31:23;2.00;;;1.00;;
3121;SDS011;1571;52.524;14.104;2023-03-23T13:34:02;2.97;;;0.77;;
3121;SDS011;1571;52.524;14.104;2023-03-23T13:36:33;1.33;;;0.97;;
3121;SDS011;1571;52.524;14.104;2023-03-23T13:39:03;1.70;;;1.00;;
3121;SDS011;1571;52.524;14.104;2023-03-23T13:41:44;5.47;;;1.00;;
3121;SDS011;1571;52.524;14.104;2023-03-23T13:44:17;1.20;;;0.97;;
3121;SDS011;1571;52.524;14.104;2023-03-23T13:46:54;1.73;;;0.90;;
3121;SDS011;1571;52.524;14.104;2023-03-23T13:49:25;0.83;;;0.83;;
3121;SDS011;1571;52.524;14.104;2023-03-23T13:51:58;1.20;;;0.80;;
3121;SDS011;1571;52.524;14.104;2023-03-23T13:54:31;4.60;;;1.37;;
3121;SDS011;1571;52.524;14.104;2023-03-23T13:57:19;1.37;;;1.17;;
3121;SDS011;1571;52.524;14.104;2023-03-23T13:59:55;1.70;;;0.93;;
3121;SDS011;1571;52.524;14.104;2023-03-23T14:02:28;1.87;;;1.03;;
3121;SDS011;1571;52.524;14.104;2023-03-23T14:05:11;1.90;;;1.20;;
3121;SDS011;1571;52.524;14.104;2023-03-23T14:07:55;1.20;;;0.70;;
3121;SDS011;1571;52.524;14.104;2023-03-23T14:10:30;1.97;;;0.83;;
3121;SDS011;1571;52.524;14.104;2023-03-23T14:13:00;2.40;;;1.37;;
3121;SDS011;1571;52.524;14.104;2023-03-23T14:15:29;1.30;;;0.77;;
3121;SDS011;1571;52.524;14.104;2023-03-23T14:17:57;1.33;;;0.77;;
3121;SDS011;1571;52.524;14.104;2023-03-23T14:20:32;1.30;;;0.80;;
3121;SDS011;1571;52.524;14.104;2023-03-23T14:23:01;0.93;;;0.80;;
3121;SDS011;1571;52.524;14.104;2023-03-23T14:25:30;2.40;;;0.80;;
3121;SDS011;1571;52.524;14.104;2023-03-23T14:27:58;2.10;;;1.00;;
3121;SDS011;1571;52.524;14.104;2023-03-23T14:30:26;1.00;;;0.83;;
3121;SDS011;1571;52.524;14.104;2023-03-23T14:33:02;1.70;;;0.97;;
3121;SDS011;1571;52.524;14.104;2023-03-23T14:35:35;1.00;;;0.90;;
3121;SDS011;1571;52.524;14.104;2023-03-23T14:38:04;1.10;;;0.80;;
3121;SDS011;1571;52.524;14.104;2023-03-23T14:40:33;4.30;;;0.93;;
3121;SDS011;1571;52.524;14.104;2023-03-23T14:43:00;3.23;;;0.90;;
3121;SDS011;1571;52.524;14.104;2023-03-23T14:45:28;1.13;;;0.80;;
3121;SDS011;1571;52.524;14.104;2023-03-23T14:47:56;1.33;;;0.90;;
3121;SDS011;1571;52.524;14.104;2023-03-23T14:50:27;2.90;;;1.00;;
3121;SDS011;1571;52.524;14.104;2023-03-23T14:52:58;3.73;;;1.30;;
3121;SDS011;1571;52.524;14.104;2023-03-23T14:55:30;1.40;;;0.73;;
3121;SDS011;1571;52.524;14.104;2023-03-23T14:58:05;1.77;;;1.00;;
3121;SDS011;1571;52.524;14.104;2023-03-23T15:00:36;1.73;;;1.10;;
3121;SDS011;1571;52.524;14.104;2023-03-23T15:03:10;2.70;;;0.80;;
3121;SDS011;1571;52.524;14.104;2023-03-23T15:05:41;1.27;;;0.80;;
3121;SDS011;1571;52.524;14.104;2023-03-23T15:08:16;2.33;;;1.67;;
3121;SDS011;1571;52.524;14.104;2023-03-23T15:10:51;3.20;;;1.00;;
3121;SDS011;1571;52.524;14.104;2023-03-23T15:13:19;2.83;;;1.83;;
3121;SDS011;1571;52.524;14.104;2023-03-23T15:15:46;1.60;;;1.10;;
3121;SDS011;1571;52.524;14.104;2023-03-23T15:18:22;1.43;;;0.70;;
3121;SDS011;1571;52.524;14.104;2023-03-23T15:20:56;3.20;;;1.20;;
3121;SDS011;1571;52.524;14.104;2023-03-23T15:23:27;3.80;;;1.00;;
3121;SDS011;1571;52.524;14.104;2023-03-23T15:25:56;1.33;;;0.97;;
3121;SDS011;1571;52.524;14.104;2023-03-23T15:28:28;3.57;;;1.30;;
3121;SDS011;1571;52.524;14.104;2023-03-23T15:30:58;2.13;;;1.17;;
3121;SDS011;1571;52.524;14.104;2023-03-23T15:33:33;3.07;;;1.70;;
3121;SDS011;1571;52.524;14.104;2023-03-23T15:36:05;1.53;;;1.30;;
3121;SDS011;1571;52.524;14.104;2023-03-23T15:38:36;2.20;;;1.87;;
3121;SDS011;1571;52.524;14.104;2023-03-23T15:41:04;2.10;;;0.70;;
3121;SDS011;1571;52.524;14.104;2023-03-23T15:43:33;1.30;;;0.90;;
3121;SDS011;1571;52.524;14.104;2023-03-23T15:46:02;1.63;;;1.10;;
3121;SDS011;1571;52.524;14.104;2023-03-23T15:48:31;1.67;;;1.00;;
3121;SDS011;1571;52.524;14.104;2023-03-23T15:51:01;1.47;;;1.00;;
3121;SDS011;1571;52.524;14.104;2023-03-23T15:53:31;4.67;;;1.50;;